sensor_id;sensor_type;location;lat;lon;timestamp;P1;durP1;ratioP1;P2;durP2;ratioP2
77866;SDS011;67271;59.120;37.970;2024-03-08T00:01:53;9.98;;;4.28;;
77866;SDS011;67271;59.120;37.970;2024-03-08T00:04:19;14.77;;;5.30;;
77866;SDS011;67271;59.120;37.970;2024-03-08T00:06:45;14.25;;;5.30;;
77866;SDS011;67271;59.120;37.970;2024-03-08T00:09:11;8.88;;;3.20;;
77866;SDS011;67271;59.120;37.970;2024-03-08T00:11:38;8.77;;;3.50;;
77866;SDS011;67271;59.120;37.970;2024-03-08T00:14:04;10.30;;;3.88;;
77866;SDS011;67271;59.120;37.970;2024-03-08T00:16:32;6.82;;;3.67;;
77866;SDS011;67271;59.120;37.970;2024-03-08T00:18:59;9.48;;;3.40;;
77866;SDS011;67271;59.120;37.970;2024-03-08T00:21:25;5.93;;;3.45;;
77866;SDS011;67271;59.120;37.970;2024-03-08T00:23:52;6.32;;;2.80;;
77866;SDS011;67271;59.120;37.970;2024-03-08T00:26:20;5.18;;;1.88;;
77866;SDS011;67271;59.120;37.970;2024-03-08T00:28:48;4.60;;;2.05;;
77866;SDS011;67271;59.120;37.970;2024-03-08T00:31:14;7.45;;;3.42;;
77866;SDS011;67271;59.120;37.970;2024-03-08T00:33:42;8.35;;;2.72;;
77866;SDS011;67271;59.120;37.970;2024-03-08T00:36:08;9.13;;;2.80;;
77866;SDS011;67271;59.120;37.970;2024-03-08T00:38:34;5.55;;;2.63;;
77866;SDS011;67271;59.120;37.970;2024-03-08T00:41:00;3.95;;;1.85;;
77866;SDS011;67271;59.120;37.970;2024-03-08T00:43:25;6.03;;;2.40;;
77866;SDS011;67271;59.120;37.970;2024-03-08T00:45:51;2.85;;;1.88;;
77866;SDS011;67271;59.120;37.970;2024-03-08T00:48:17;8.90;;;3.63;;
77866;SDS011;67271;59.120;37.970;2024-03-08T00:50:43;4.80;;;2.50;;
77866;SDS011;67271;59.120;37.970;2024-03-08T00:53:11;7.88;;;3.60;;
77866;SDS011;67271;59.120;37.970;2024-03-08T00:55:37;6.78;;;3.08;;
77866;SDS011;67271;59.120;37.970;2024-03-08T00:58:04;5.65;;;2.80;;
77866;SDS011;67271;59.120;37.970;2024-03-08T01:00:30;4.13;;;2.50;;
77866;SDS011;67271;59.120;37.970;2024-03-08T01:02:56;7.85;;;3.08;;
77866;SDS011;67271;59.120;37.970;2024-03-08T01:05:22;10.77;;;3.78;;
77866;SDS011;67271;59.120;37.970;2024-03-08T01:07:50;6.53;;;3.20;;
77866;SDS011;67271;59.120;37.970;2024-03-08T01:10:16;6.28;;;2.60;;
77866;SDS011;67271;59.120;37.970;2024-03-08T01:12:42;2.65;;;1.90;;
77866;SDS011;67271;59.120;37.970;2024-03-08T01:15:09;4.90;;;2.65;;
77866;SDS011;67271;59.120;37.970;2024-03-08T01:17:35;3.33;;;2.33;;
77866;SDS011;67271;59.120;37.970;2024-03-08T01:20:02;7.22;;;2.97;;
77866;SDS011;67271;59.120;37.970;2024-03-08T01:22:29;6.80;;;3.28;;
77866;SDS011;67271;59.120;37.970;2024-03-08T01:24:55;5.13;;;2.70;;
77866;SDS011;67271;59.120;37.970;2024-03-08T01:27:21;6.63;;;2.78;;
77866;SDS011;67271;59.120;37.970;2024-03-08T01:29:48;6.63;;;1.65;;
77866;SDS011;67271;59.120;37.970;2024-03-08T01:32:13;4.45;;;2.30;;
77866;SDS011;67271;59.120;37.970;2024-03-08T01:34:40;5.18;;;3.13;;
77866;SDS011;67271;59.120;37.970;2024-03-08T01:37:06;7.05;;;2.95;;
77866;SDS011;67271;59.120;37.970;2024-03-08T01:39:32;5.00;;;2.72;;
77866;SDS011;67271;59.120;37.970;2024-03-08T01:41:58;5.03;;;2.92;;
77866;SDS011;67271;59.120;37.970;2024-03-08T01:44:24;5.10;;;2.65;;
77866;SDS011;67271;59.120;37.970;2024-03-08T01:46:50;5.95;;;2.35;;
77866;SDS011;67271;59.120;37.970;2024-03-08T01:49:19;3.30;;;2.42;;
77866;SDS011;67271;59.120;37.970;2024-03-08T01:51:47;4.38;;;2.80;;
77866;SDS011;67271;59.120;37.970;2024-03-08T01:54:15;4.13;;;2.50;;
77866;SDS011;67271;59.120;37.970;2024-03-08T01:56:44;4.00;;;2.53;;
77866;SDS011;67271;59.120;37.970;2024-03-08T01:59:10;6.65;;;3.20;;
77866;SDS011;67271;59.120;37.970;2024-03-08T02:04:37;5.57;;;2.33;;
77866;SDS011;67271;59.120;37.970;2024-03-08T02:07:04;4.90;;;2.42;;
77866;SDS011;67271;59.120;37.970;2024-03-08T02:09:31;3.85;;;2.20;;
77866;SDS011;67271;59.120;37.970;2024-03-08T02:11:56;5.93;;;2.53;;
77866;SDS011;67271;59.120;37.970;2024-03-08T02:14:24;1.17;;;0.93;;
77866;SDS011;67271;59.120;37.970;2024-03-08T02:16:50;3.55;;;2.33;;
77866;SDS011;67271;59.120;37.970;2024-03-08T02:19:16;4.18;;;2.50;;
77866;SDS011;67271;59.120;37.970;2024-03-08T02:21:42;2.08;;;1.83;;
77866;SDS011;67271;59.120;37.970;2024-03-08T02:24:09;3.42;;;2.55;;
77866;SDS011;67271;59.120;37.970;2024-03-08T02:26:35;3.53;;;2.30;;
77866;SDS011;67271;59.120;37.970;2024-03-08T02:29:01;5.22;;;2.13;;
77866;SDS011;67271;59.120;37.970;2024-03-08T02:31:27;14.93;;;3.10;;
77866;SDS011;67271;59.120;37.970;2024-03-08T02:33:53;8.88;;;3.78;;
77866;SDS011;67271;59.120;37.970;2024-03-08T02:36:19;7.10;;;3.53;;
77866;SDS011;67271;59.120;37.970;2024-03-08T02:38:45;10.70;;;3.58;;
77866;SDS011;67271;59.120;37.970;2024-03-08T02:41:11;3.00;;;2.33;;
77866;SDS011;67271;59.120;37.970;2024-03-08T02:43:37;5.00;;;3.30;;
77866;SDS011;67271;59.120;37.970;2024-03-08T02:46:03;7.45;;;3.47;;
77866;SDS011;67271;59.120;37.970;2024-03-08T02:48:30;6.28;;;3.33;;
77866;SDS011;67271;59.120;37.970;2024-03-08T02:50:56;1.75;;;1.45;;
77866;SDS011;67271;59.120;37.970;2024-03-08T02:53:22;4.40;;;2.70;;
77866;SDS011;67271;59.120;37.970;2024-03-08T02:55:48;5.65;;;2.55;;
77866;SDS011;67271;59.120;37.970;2024-03-08T02:58:14;5.10;;;2.50;;
77866;SDS011;67271;59.120;37.970;2024-03-08T03:00:39;6.35;;;2.85;;
77866;SDS011;67271;59.120;37.970;2024-03-08T03:03:06;5.25;;;2.80;;
77866;SDS011;67271;59.120;37.970;2024-03-08T03:05:32;3.75;;;2.05;;
77866;SDS011;67271;59.120;37.970;2024-03-08T03:07:59;5.15;;;3.67;;
77866;SDS011;67271;59.120;37.970;2024-03-08T03:10:25;2.80;;;1.50;;
77866;SDS011;67271;59.120;37.970;2024-03-08T03:12:51;4.97;;;3.05;;
77866;SDS011;67271;59.120;37.970;2024-03-08T03:15:18;6.60;;;3.08;;
77866;SDS011;67271;59.120;37.970;2024-03-08T03:17:47;3.95;;;2.38;;
77866;SDS011;67271;59.120;37.970;2024-03-08T03:20:16;2.83;;;2.00;;
77866;SDS011;67271;59.120;37.970;2024-03-08T03:22:49;4.55;;;2.42;;
77866;SDS011;67271;59.120;37.970;2024-03-08T03:25:18;7.55;;;3.63;;
77866;SDS011;67271;59.120;37.970;2024-03-08T03:27:51;4.65;;;2.40;;
77866;SDS011;67271;59.120;37.970;2024-03-08T03:30:17;6.00;;;2.55;;
77866;SDS011;67271;59.120;37.970;2024-03-08T03:32:49;5.47;;;2.58;;
77866;SDS011;67271;59.120;37.970;2024-03-08T03:35:20;4.00;;;2.15;;
77866;SDS011;67271;59.120;37.970;2024-03-08T03:37:47;4.60;;;2.30;;
77866;SDS011;67271;59.120;37.970;2024-03-08T03:40:31;3.85;;;2.78;;
77866;SDS011;67271;59.120;37.970;2024-03-08T03:43:01;7.18;;;2.38;;
77866;SDS011;67271;59.120;37.970;2024-03-08T03:45:28;5.55;;;3.13;;
77866;SDS011;67271;59.120;37.970;2024-03-08T03:47:54;3.60;;;2.15;;
77866;SDS011;67271;59.120;37.970;2024-03-08T03:50:20;7.55;;;3.45;;
77866;SDS011;67271;59.120;37.970;2024-03-08T03:52:50;5.13;;;2.92;;
77866;SDS011;67271;59.120;37.970;2024-03-08T03:55:15;5.05;;;2.83;;
77866;SDS011;67271;59.120;37.970;2024-03-08T03:57:41;7.40;;;3.20;;
77866;SDS011;67271;59.120;37.970;2024-03-08T04:00:08;6.50;;;3.53;;
77866;SDS011;67271;59.120;37.970;2024-03-08T04:02:40;5.80;;;2.50;;
77866;SDS011;67271;59.120;37.970;2024-03-08T04:05:07;15.07;;;3.28;;
77866;SDS011;67271;59.120;37.970;2024-03-08T04:07:34;10.50;;;2.85;;
77866;SDS011;67271;59.120;37.970;2024-03-08T04:10:01;5.38;;;2.60;;
77866;SDS011;67271;59.120;37.970;2024-03-08T04:12:28;6.15;;;3.00;;
77866;SDS011;67271;59.120;37.970;2024-03-08T04:14:55;4.60;;;2.03;;
77866;SDS011;67271;59.120;37.970;2024-03-08T04:17:21;4.78;;;2.38;;
77866;SDS011;67271;59.120;37.970;2024-03-08T04:19:49;7.88;;;2.50;;
77866;SDS011;67271;59.120;37.970;2024-03-08T04:22:15;4.07;;;2.10;;
77866;SDS011;67271;59.120;37.970;2024-03-08T04:24:43;3.17;;;2.33;;
77866;SDS011;67271;59.120;37.970;2024-03-08T04:27:09;2.95;;;2.13;;
77866;SDS011;67271;59.120;37.970;2024-03-08T04:29:35;6.05;;;2.63;;
77866;SDS011;67271;59.120;37.970;2024-03-08T04:32:04;5.85;;;2.13;;
77866;SDS011;67271;59.120;37.970;2024-03-08T04:34:32;11.13;;;3.20;;
77866;SDS011;67271;59.120;37.970;2024-03-08T04:37:02;4.65;;;2.72;;
77866;SDS011;67271;59.120;37.970;2024-03-08T04:39:30;3.80;;;2.67;;
77866;SDS011;67271;59.120;37.970;2024-03-08T04:41:57;8.00;;;2.45;;
77866;SDS011;67271;59.120;37.970;2024-03-08T04:44:28;6.35;;;2.78;;
77866;SDS011;67271;59.120;37.970;2024-03-08T04:46:55;4.47;;;2.72;;
77866;SDS011;67271;59.120;37.970;2024-03-08T04:49:21;3.67;;;2.13;;
77866;SDS011;67271;59.120;37.970;2024-03-08T04:51:48;4.07;;;2.30;;
77866;SDS011;67271;59.120;37.970;2024-03-08T04:54:14;1.73;;;1.60;;
77866;SDS011;67271;59.120;37.970;2024-03-08T04:56:39;3.55;;;2.72;;
77866;SDS011;67271;59.120;37.970;2024-03-08T04:59:05;4.45;;;2.47;;
77866;SDS011;67271;59.120;37.970;2024-03-08T05:01:33;5.65;;;3.10;;
77866;SDS011;67271;59.120;37.970;2024-03-08T05:04:03;3.05;;;2.35;;
77866;SDS011;67271;59.120;37.970;2024-03-08T05:06:29;2.97;;;1.92;;
77866;SDS011;67271;59.120;37.970;2024-03-08T05:08:55;3.42;;;2.17;;
77866;SDS011;67271;59.120;37.970;2024-03-08T05:11:21;7.03;;;2.55;;
77866;SDS011;67271;59.120;37.970;2024-03-08T05:13:47;3.17;;;2.13;;
77866;SDS011;67271;59.120;37.970;2024-03-08T05:16:13;3.00;;;1.67;;
77866;SDS011;67271;59.120;37.970;2024-03-08T05:18:40;6.10;;;2.50;;
77866;SDS011;67271;59.120;37.970;2024-03-08T05:21:07;4.30;;;2.55;;
77866;SDS011;67271;59.120;37.970;2024-03-08T05:23:34;3.63;;;2.15;;
77866;SDS011;67271;59.120;37.970;2024-03-08T05:26:00;3.67;;;2.70;;
77866;SDS011;67271;59.120;37.970;2024-03-08T05:28:26;3.85;;;2.20;;
77866;SDS011;67271;59.120;37.970;2024-03-08T05:30:52;3.35;;;1.95;;
77866;SDS011;67271;59.120;37.970;2024-03-08T05:33:18;5.93;;;2.65;;
77866;SDS011;67271;59.120;37.970;2024-03-08T05:35:44;3.70;;;2.20;;
77866;SDS011;67271;59.120;37.970;2024-03-08T05:38:10;2.22;;;1.65;;
77866;SDS011;67271;59.120;37.970;2024-03-08T05:40:38;4.05;;;2.17;;
77866;SDS011;67271;59.120;37.970;2024-03-08T05:43:03;4.40;;;1.60;;
77866;SDS011;67271;59.120;37.970;2024-03-08T05:45:30;4.10;;;2.05;;
77866;SDS011;67271;59.120;37.970;2024-03-08T05:47:56;4.25;;;1.98;;
77866;SDS011;67271;59.120;37.970;2024-03-08T05:50:22;2.85;;;1.75;;
77866;SDS011;67271;59.120;37.970;2024-03-08T05:52:48;2.55;;;1.88;;
77866;SDS011;67271;59.120;37.970;2024-03-08T05:55:14;3.75;;;2.22;;
77866;SDS011;67271;59.120;37.970;2024-03-08T05:57:41;4.63;;;2.45;;
77866;SDS011;67271;59.120;37.970;2024-03-08T06:00:08;4.53;;;2.63;;
77866;SDS011;67271;59.120;37.970;2024-03-08T06:02:38;3.65;;;1.88;;
77866;SDS011;67271;59.120;37.970;2024-03-08T06:05:09;3.40;;;1.92;;
77866;SDS011;67271;59.120;37.970;2024-03-08T06:07:36;4.18;;;2.25;;
77866;SDS011;67271;59.120;37.970;2024-03-08T06:10:06;5.32;;;2.63;;
77866;SDS011;67271;59.120;37.970;2024-03-08T06:12:36;6.93;;;2.50;;
77866;SDS011;67271;59.120;37.970;2024-03-08T06:15:08;3.00;;;1.70;;
77866;SDS011;67271;59.120;37.970;2024-03-08T06:17:35;3.90;;;1.73;;
77866;SDS011;67271;59.120;37.970;2024-03-08T06:20:02;3.58;;;2.03;;
77866;SDS011;67271;59.120;37.970;2024-03-08T06:22:29;3.63;;;2.40;;
77866;SDS011;67271;59.120;37.970;2024-03-08T06:24:56;4.55;;;2.88;;
77866;SDS011;67271;59.120;37.970;2024-03-08T06:27:22;10.27;;;3.03;;
77866;SDS011;67271;59.120;37.970;2024-03-08T06:29:47;6.47;;;2.63;;
77866;SDS011;67271;59.120;37.970;2024-03-08T06:32:14;4.55;;;2.55;;
77866;SDS011;67271;59.120;37.970;2024-03-08T06:34:41;3.75;;;2.10;;
77866;SDS011;67271;59.120;37.970;2024-03-08T06:37:07;3.13;;;1.85;;
77866;SDS011;67271;59.120;37.970;2024-03-08T06:39:32;4.00;;;2.42;;
77866;SDS011;67271;59.120;37.970;2024-03-08T06:41:59;4.22;;;2.78;;
77866;SDS011;67271;59.120;37.970;2024-03-08T06:44:25;3.15;;;1.80;;
77866;SDS011;67271;59.120;37.970;2024-03-08T06:46:51;3.83;;;1.77;;
77866;SDS011;67271;59.120;37.970;2024-03-08T06:49:17;2.28;;;1.55;;
77866;SDS011;67271;59.120;37.970;2024-03-08T06:51:43;5.63;;;1.90;;
77866;SDS011;67271;59.120;37.970;2024-03-08T06:54:09;3.28;;;1.80;;
77866;SDS011;67271;59.120;37.970;2024-03-08T06:56:35;4.40;;;1.98;;
77866;SDS011;67271;59.120;37.970;2024-03-08T06:59:00;5.30;;;1.80;;
77866;SDS011;67271;59.120;37.970;2024-03-08T07:01:28;2.70;;;1.67;;
77866;SDS011;67271;59.120;37.970;2024-03-08T07:03:57;2.08;;;1.42;;
77866;SDS011;67271;59.120;37.970;2024-03-08T07:06:23;2.72;;;1.80;;
77866;SDS011;67271;59.120;37.970;2024-03-08T07:08:50;4.05;;;1.80;;
77866;SDS011;67271;59.120;37.970;2024-03-08T07:11:17;2.58;;;1.75;;
77866;SDS011;67271;59.120;37.970;2024-03-08T07:13:46;2.65;;;1.73;;
77866;SDS011;67271;59.120;37.970;2024-03-08T07:16:12;2.83;;;1.70;;
77866;SDS011;67271;59.120;37.970;2024-03-08T07:18:38;2.47;;;1.60;;
77866;SDS011;67271;59.120;37.970;2024-03-08T07:21:09;1.50;;;1.40;;
77866;SDS011;67271;59.120;37.970;2024-03-08T07:23:35;2.92;;;1.73;;
77866;SDS011;67271;59.120;37.970;2024-03-08T07:26:20;7.35;;;2.33;;
77866;SDS011;67271;59.120;37.970;2024-03-08T07:28:46;3.22;;;1.48;;
77866;SDS011;67271;59.120;37.970;2024-03-08T07:31:12;3.22;;;1.73;;
77866;SDS011;67271;59.120;37.970;2024-03-08T07:33:56;4.20;;;1.92;;
77866;SDS011;67271;59.120;37.970;2024-03-08T07:36:24;2.95;;;2.40;;
77866;SDS011;67271;59.120;37.970;2024-03-08T07:38:49;2.00;;;1.65;;
77866;SDS011;67271;59.120;37.970;2024-03-08T07:41:15;3.90;;;1.45;;
77866;SDS011;67271;59.120;37.970;2024-03-08T07:43:42;2.80;;;2.08;;
77866;SDS011;67271;59.120;37.970;2024-03-08T07:46:09;4.45;;;1.75;;
77866;SDS011;67271;59.120;37.970;2024-03-08T07:48:35;2.63;;;1.70;;
77866;SDS011;67271;59.120;37.970;2024-03-08T07:51:05;2.65;;;1.85;;
77866;SDS011;67271;59.120;37.970;2024-03-08T07:53:31;2.88;;;2.13;;
77866;SDS011;67271;59.120;37.970;2024-03-08T07:55:57;3.72;;;1.75;;
77866;SDS011;67271;59.120;37.970;2024-03-08T07:58:22;2.58;;;1.48;;
77866;SDS011;67271;59.120;37.970;2024-03-08T08:00:49;2.28;;;1.92;;
77866;SDS011;67271;59.120;37.970;2024-03-08T08:03:15;2.35;;;1.80;;
77866;SDS011;67271;59.120;37.970;2024-03-08T08:05:41;2.75;;;2.08;;
77866;SDS011;67271;59.120;37.970;2024-03-08T08:08:07;5.68;;;3.25;;
77866;SDS011;67271;59.120;37.970;2024-03-08T08:10:36;8.80;;;2.92;;
77866;SDS011;67271;59.120;37.970;2024-03-08T08:13:02;4.82;;;2.95;;
77866;SDS011;67271;59.120;37.970;2024-03-08T08:15:32;3.75;;;2.47;;
77866;SDS011;67271;59.120;37.970;2024-03-08T08:18:00;2.15;;;1.60;;
77866;SDS011;67271;59.120;37.970;2024-03-08T08:20:28;7.50;;;2.35;;
77866;SDS011;67271;59.120;37.970;2024-03-08T08:22:54;2.13;;;1.90;;
77866;SDS011;67271;59.120;37.970;2024-03-08T08:25:20;1.60;;;1.50;;
77866;SDS011;67271;59.120;37.970;2024-03-08T08:27:49;1.42;;;1.10;;
77866;SDS011;67271;59.120;37.970;2024-03-08T08:30:15;5.90;;;1.48;;
77866;SDS011;67271;59.120;37.970;2024-03-08T08:32:41;2.17;;;1.67;;
77866;SDS011;67271;59.120;37.970;2024-03-08T08:35:09;1.17;;;1.00;;
77866;SDS011;67271;59.120;37.970;2024-03-08T08:37:40;5.57;;;1.38;;
77866;SDS011;67271;59.120;37.970;2024-03-08T08:40:07;2.08;;;1.35;;
77866;SDS011;67271;59.120;37.970;2024-03-08T08:42:40;6.03;;;1.25;;
77866;SDS011;67271;59.120;37.970;2024-03-08T08:45:06;1.38;;;1.10;;
77866;SDS011;67271;59.120;37.970;2024-03-08T08:47:36;0.63;;;0.63;;
77866;SDS011;67271;59.120;37.970;2024-03-08T08:50:02;1.00;;;0.93;;
77866;SDS011;67271;59.120;37.970;2024-03-08T08:52:30;4.00;;;0.95;;
77866;SDS011;67271;59.120;37.970;2024-03-08T08:54:57;0.55;;;0.43;;
77866;SDS011;67271;59.120;37.970;2024-03-08T08:57:23;1.58;;;0.93;;
77866;SDS011;67271;59.120;37.970;2024-03-08T08:59:49;2.33;;;1.25;;
77866;SDS011;67271;59.120;37.970;2024-03-08T09:02:15;3.08;;;1.20;;
77866;SDS011;67271;59.120;37.970;2024-03-08T09:04:42;2.30;;;1.50;;
77866;SDS011;67271;59.120;37.970;2024-03-08T09:07:09;1.83;;;1.40;;
77866;SDS011;67271;59.120;37.970;2024-03-08T09:09:35;2.17;;;0.60;;
77866;SDS011;67271;59.120;37.970;2024-03-08T09:12:01;2.08;;;0.95;;
77866;SDS011;67271;59.120;37.970;2024-03-08T09:14:27;0.45;;;0.32;;
77866;SDS011;67271;59.120;37.970;2024-03-08T09:16:53;0.93;;;0.50;;
77866;SDS011;67271;59.120;37.970;2024-03-08T09:19:19;0.80;;;0.80;;
77866;SDS011;67271;59.120;37.970;2024-03-08T09:21:45;1.02;;;0.70;;
77866;SDS011;67271;59.120;37.970;2024-03-08T09:24:11;1.08;;;0.90;;
77866;SDS011;67271;59.120;37.970;2024-03-08T09:26:37;1.35;;;1.08;;
77866;SDS011;67271;59.120;37.970;2024-03-08T09:29:06;0.25;;;0.25;;
77866;SDS011;67271;59.120;37.970;2024-03-08T09:31:32;0.50;;;0.30;;
77866;SDS011;67271;59.120;37.970;2024-03-08T09:33:58;1.35;;;0.77;;
77866;SDS011;67271;59.120;37.970;2024-03-08T09:36:24;1.58;;;0.98;;
77866;SDS011;67271;59.120;37.970;2024-03-08T09:38:50;0.63;;;0.52;;
77866;SDS011;67271;59.120;37.970;2024-03-08T09:41:16;1.17;;;0.73;;
77866;SDS011;67271;59.120;37.970;2024-03-08T09:43:42;0.35;;;0.35;;
77866;SDS011;67271;59.120;37.970;2024-03-08T09:46:09;1.55;;;1.15;;
77866;SDS011;67271;59.120;37.970;2024-03-08T09:48:36;0.88;;;0.52;;
77866;SDS011;67271;59.120;37.970;2024-03-08T09:51:03;1.10;;;0.70;;
77866;SDS011;67271;59.120;37.970;2024-03-08T09:53:30;3.83;;;0.38;;
77866;SDS011;67271;59.120;37.970;2024-03-08T09:55:56;0.65;;;0.50;;
77866;SDS011;67271;59.120;37.970;2024-03-08T09:58:22;1.48;;;0.70;;
77866;SDS011;67271;59.120;37.970;2024-03-08T10:01:00;0.95;;;0.70;;
77866;SDS011;67271;59.120;37.970;2024-03-08T10:03:27;0.82;;;0.57;;
77866;SDS011;67271;59.120;37.970;2024-03-08T10:05:56;2.28;;;0.93;;
77866;SDS011;67271;59.120;37.970;2024-03-08T10:08:26;0.70;;;0.40;;
77866;SDS011;67271;59.120;37.970;2024-03-08T10:10:55;0.75;;;0.60;;
77866;SDS011;67271;59.120;37.970;2024-03-08T10:13:23;0.20;;;0.20;;
77866;SDS011;67271;59.120;37.970;2024-03-08T10:15:52;0.47;;;0.47;;
77866;SDS011;67271;59.120;37.970;2024-03-08T10:18:18;0.43;;;0.40;;
77866;SDS011;67271;59.120;37.970;2024-03-08T10:20:44;0.82;;;0.38;;
77866;SDS011;67271;59.120;37.970;2024-03-08T10:23:10;1.27;;;1.17;;
77866;SDS011;67271;59.120;37.970;2024-03-08T10:25:36;1.08;;;0.60;;
77866;SDS011;67271;59.120;37.970;2024-03-08T10:28:03;5.95;;;0.60;;
77866;SDS011;67271;59.120;37.970;2024-03-08T10:30:30;1.88;;;1.05;;
77866;SDS011;67271;59.120;37.970;2024-03-08T10:32:56;0.98;;;0.57;;
77866;SDS011;67271;59.120;37.970;2024-03-08T10:35:22;0.90;;;0.85;;
77866;SDS011;67271;59.120;37.970;2024-03-08T10:37:49;0.47;;;0.45;;
77866;SDS011;67271;59.120;37.970;2024-03-08T10:40:28;0.88;;;0.65;;
77866;SDS011;67271;59.120;37.970;2024-03-08T10:42:57;1.40;;;1.30;;
77866;SDS011;67271;59.120;37.970;2024-03-08T10:45:40;2.95;;;1.02;;
77866;SDS011;67271;59.120;37.970;2024-03-08T10:50:38;3.55;;;1.58;;
77866;SDS011;67271;59.120;37.970;2024-03-08T10:53:05;1.45;;;0.68;;
77866;SDS011;67271;59.120;37.970;2024-03-08T10:55:32;1.75;;;0.63;;
77866;SDS011;67271;59.120;37.970;2024-03-08T10:57:59;1.00;;;0.77;;
77866;SDS011;67271;59.120;37.970;2024-03-08T11:00:26;0.85;;;0.80;;
77866;SDS011;67271;59.120;37.970;2024-03-08T11:02:52;1.23;;;0.57;;
77866;SDS011;67271;59.120;37.970;2024-03-08T11:05:32;1.13;;;0.65;;
77866;SDS011;67271;59.120;37.970;2024-03-08T11:08:15;1.77;;;1.00;;
77866;SDS011;67271;59.120;37.970;2024-03-08T11:10:46;1.20;;;1.08;;
77866;SDS011;67271;59.120;37.970;2024-03-08T11:13:32;4.05;;;0.90;;
77866;SDS011;67271;59.120;37.970;2024-03-08T11:16:09;2.25;;;0.40;;
77866;SDS011;67271;59.120;37.970;2024-03-08T11:18:36;1.05;;;0.28;;
77866;SDS011;67271;59.120;37.970;2024-03-08T11:21:07;0.85;;;0.60;;
77866;SDS011;67271;59.120;37.970;2024-03-08T11:23:37;1.17;;;0.63;;
77866;SDS011;67271;59.120;37.970;2024-03-08T11:26:21;0.28;;;0.28;;
77866;SDS011;67271;59.120;37.970;2024-03-08T11:28:49;0.22;;;0.22;;
77866;SDS011;67271;59.120;37.970;2024-03-08T11:31:22;0.20;;;0.20;;
77866;SDS011;67271;59.120;37.970;2024-03-08T11:33:49;0.95;;;0.47;;
77866;SDS011;67271;59.120;37.970;2024-03-08T11:36:21;0.60;;;0.55;;
77866;SDS011;67271;59.120;37.970;2024-03-08T11:38:48;0.80;;;0.38;;
77866;SDS011;67271;59.120;37.970;2024-03-08T11:41:20;1.13;;;0.50;;
77866;SDS011;67271;59.120;37.970;2024-03-08T11:44:02;0.10;;;0.10;;
77866;SDS011;67271;59.120;37.970;2024-03-08T11:46:30;0.85;;;0.60;;
77866;SDS011;67271;59.120;37.970;2024-03-08T11:48:56;0.52;;;0.50;;
77866;SDS011;67271;59.120;37.970;2024-03-08T11:51:22;0.77;;;0.63;;
77866;SDS011;67271;59.120;37.970;2024-03-08T11:53:51;0.47;;;0.25;;
77866;SDS011;67271;59.120;37.970;2024-03-08T11:56:18;0.13;;;0.13;;
77866;SDS011;67271;59.120;37.970;2024-03-08T11:58:53;0.82;;;0.82;;
77866;SDS011;67271;59.120;37.970;2024-03-08T12:01:23;0.60;;;0.60;;
77866;SDS011;67271;59.120;37.970;2024-03-08T12:03:53;0.38;;;0.35;;
77866;SDS011;67271;59.120;37.970;2024-03-08T12:06:20;0.98;;;0.57;;
77866;SDS011;67271;59.120;37.970;2024-03-08T12:08:46;0.57;;;0.50;;
77866;SDS011;67271;59.120;37.970;2024-03-08T12:13:48;3.28;;;1.88;;
77866;SDS011;67271;59.120;37.970;2024-03-08T12:16:17;3.47;;;2.40;;
77866;SDS011;67271;59.120;37.970;2024-03-08T12:18:44;2.03;;;1.70;;
77866;SDS011;67271;59.120;37.970;2024-03-08T12:21:11;1.90;;;1.30;;
77866;SDS011;67271;59.120;37.970;2024-03-08T12:23:39;1.85;;;1.75;;
77866;SDS011;67271;59.120;37.970;2024-03-08T12:26:12;2.85;;;2.53;;
77866;SDS011;67271;59.120;37.970;2024-03-08T12:28:40;10.45;;;2.80;;
77866;SDS011;67271;59.120;37.970;2024-03-08T12:31:11;3.22;;;2.50;;
77866;SDS011;67271;59.120;37.970;2024-03-08T12:33:46;6.30;;;2.85;;
77866;SDS011;67271;59.120;37.970;2024-03-08T12:36:16;3.78;;;2.38;;
77866;SDS011;67271;59.120;37.970;2024-03-08T12:38:43;4.10;;;1.58;;
77866;SDS011;67271;59.120;37.970;2024-03-08T12:41:13;4.35;;;0.90;;
77866;SDS011;67271;59.120;37.970;2024-03-08T12:43:46;0.43;;;0.43;;
77866;SDS011;67271;59.120;37.970;2024-03-08T12:46:17;2.13;;;0.35;;
77866;SDS011;67271;59.120;37.970;2024-03-08T12:48:46;0.35;;;0.35;;
77866;SDS011;67271;59.120;37.970;2024-03-08T12:51:19;3.95;;;1.02;;
77866;SDS011;67271;59.120;37.970;2024-03-08T12:53:46;2.40;;;1.23;;
77866;SDS011;67271;59.120;37.970;2024-03-08T12:56:13;0.38;;;0.38;;
77866;SDS011;67271;59.120;37.970;2024-03-08T12:58:44;1.00;;;0.82;;
77866;SDS011;67271;59.120;37.970;2024-03-08T13:01:10;0.55;;;0.55;;
77866;SDS011;67271;59.120;37.970;2024-03-08T13:03:40;0.45;;;0.30;;
77866;SDS011;67271;59.120;37.970;2024-03-08T13:06:09;0.30;;;0.30;;
77866;SDS011;67271;59.120;37.970;2024-03-08T13:08:38;0.47;;;0.40;;
77866;SDS011;67271;59.120;37.970;2024-03-08T13:11:07;1.25;;;0.65;;
77866;SDS011;67271;59.120;37.970;2024-03-08T13:13:33;0.65;;;0.65;;
77866;SDS011;67271;59.120;37.970;2024-03-08T13:16:02;0.60;;;0.52;;
77866;SDS011;67271;59.120;37.970;2024-03-08T13:18:28;2.25;;;0.93;;
77866;SDS011;67271;59.120;37.970;2024-03-08T13:20:54;1.45;;;1.17;;
77866;SDS011;67271;59.120;37.970;2024-03-08T13:23:22;1.08;;;1.02;;
77866;SDS011;67271;59.120;37.970;2024-03-08T13:25:48;0.43;;;0.20;;
77866;SDS011;67271;59.120;37.970;2024-03-08T13:28:14;0.30;;;0.30;;
77866;SDS011;67271;59.120;37.970;2024-03-08T13:30:41;0.60;;;0.38;;
77866;SDS011;67271;59.120;37.970;2024-03-08T13:33:07;1.55;;;0.80;;
77866;SDS011;67271;59.120;37.970;2024-03-08T13:35:33;0.20;;;0.20;;
77866;SDS011;67271;59.120;37.970;2024-03-08T13:37:59;2.13;;;1.40;;
77866;SDS011;67271;59.120;37.970;2024-03-08T13:40:28;1.25;;;0.75;;
77866;SDS011;67271;59.120;37.970;2024-03-08T13:42:54;0.70;;;0.60;;
77866;SDS011;67271;59.120;37.970;2024-03-08T13:45:20;0.88;;;0.68;;
77866;SDS011;67271;59.120;37.970;2024-03-08T13:47:48;1.52;;;0.65;;
77866;SDS011;67271;59.120;37.970;2024-03-08T13:50:16;0.52;;;0.50;;
77866;SDS011;67271;59.120;37.970;2024-03-08T13:52:46;1.60;;;0.90;;
77866;SDS011;67271;59.120;37.970;2024-03-08T13:55:20;0.65;;;0.52;;
77866;SDS011;67271;59.120;37.970;2024-03-08T13:57:50;0.95;;;0.47;;
77866;SDS011;67271;59.120;37.970;2024-03-08T14:00:19;0.40;;;0.40;;
77866;SDS011;67271;59.120;37.970;2024-03-08T14:02:51;2.22;;;1.02;;
77866;SDS011;67271;59.120;37.970;2024-03-08T14:05:17;0.95;;;0.15;;
77866;SDS011;67271;59.120;37.970;2024-03-08T14:07:45;3.80;;;1.08;;
77866;SDS011;67271;59.120;37.970;2024-03-08T14:10:14;1.50;;;0.55;;
77866;SDS011;67271;59.120;37.970;2024-03-08T14:12:40;0.28;;;0.28;;
77866;SDS011;67271;59.120;37.970;2024-03-08T14:15:09;0.43;;;0.43;;
77866;SDS011;67271;59.120;37.970;2024-03-08T14:17:36;1.15;;;0.60;;
77866;SDS011;67271;59.120;37.970;2024-03-08T14:20:02;0.50;;;0.43;;
77866;SDS011;67271;59.120;37.970;2024-03-08T14:22:29;1.42;;;0.85;;
77866;SDS011;67271;59.120;37.970;2024-03-08T14:24:56;1.48;;;1.02;;
77866;SDS011;67271;59.120;37.970;2024-03-08T14:27:22;2.85;;;0.93;;
77866;SDS011;67271;59.120;37.970;2024-03-08T14:29:48;0.57;;;0.45;;
77866;SDS011;67271;59.120;37.970;2024-03-08T14:32:14;2.00;;;1.02;;
77866;SDS011;67271;59.120;37.970;2024-03-08T14:34:40;0.40;;;0.40;;
77866;SDS011;67271;59.120;37.970;2024-03-08T14:37:06;0.50;;;0.40;;
77866;SDS011;67271;59.120;37.970;2024-03-08T14:39:37;0.85;;;0.50;;
77866;SDS011;67271;59.120;37.970;2024-03-08T14:42:03;3.58;;;0.77;;
77866;SDS011;67271;59.120;37.970;2024-03-08T14:44:29;4.38;;;1.25;;